createdAt,value
2023-02-03T00:02:45.427Z,7.4
2023-02-03T00:08:21.279Z,7.4
2023-02-03T00:13:56.287Z,7.3
2023-02-03T00:19:38.716Z,7.3
2023-02-03T00:25:13.827Z,7.2
2023-02-03T00:30:48.835Z,7.2
2023-02-03T00:36:24.150Z,7.1
2023-02-03T00:41:59.295Z,7.1
2023-02-03T00:47:34.758Z,7.1
2023-02-03T00:53:10.932Z,7.1
2023-02-03T00:58:45.830Z,7
2023-02-03T01:04:20.722Z,7
2023-02-03T01:10:03.130Z,7
2023-02-03T01:15:39.076Z,7
2023-02-03T01:21:14.993Z,6.9
2023-02-03T01:27:11.101Z,6.9
2023-02-03T01:32:47.398Z,6.9
2023-02-03T01:38:27.810Z,6.9
2023-02-03T01:44:03.615Z,6.8
2023-02-03T01:49:42.252Z,6.7
2023-02-03T01:55:21.371Z,6.7
2023-02-03T02:00:58.252Z,6.6
2023-02-03T02:06:34.051Z,6.6
2023-02-03T02:12:14.775Z,6.6
2023-02-03T02:17:50.093Z,6.6
2023-02-03T02:23:24.888Z,6.6
2023-02-03T02:29:02.076Z,6.5
2023-02-03T02:34:50.801Z,6.4
2023-02-03T02:40:33.824Z,6.3
2023-02-03T02:46:11.661Z,6.3
2023-02-03T02:52:02.424Z,6.3
2023-02-03T02:57:37.530Z,6.3
2023-02-03T03:03:31.963Z,6.3
2023-02-03T03:09:16.178Z,6.2
2023-02-03T03:14:50.861Z,6.2
2023-02-03T03:20:30.611Z,6.1
2023-02-03T03:26:05.535Z,6.1
2023-02-03T03:31:40.785Z,6.2
2023-02-03T03:37:18.423Z,6.2
2023-02-03T03:42:54.962Z,6.1
2023-02-03T03:48:29.872Z,6.1
2023-02-03T03:54:31.113Z,6.1
2023-02-03T04:00:06.561Z,6.1
2023-02-03T04:05:46.629Z,6.1
2023-02-03T04:11:32.841Z,6
2023-02-03T04:17:08.371Z,5.9
2023-02-03T04:22:45.373Z,5.8
2023-02-03T04:28:21.251Z,5.9
2023-02-03T04:33:59.088Z,5.8
2023-02-03T04:39:36.475Z,5.8
2023-02-03T04:45:13.288Z,5.8
2023-02-03T04:50:49.126Z,5.8
2023-02-03T04:56:23.800Z,5.9
2023-02-03T05:01:58.442Z,5.9
2023-02-03T05:07:34.076Z,5.8
2023-02-03T05:13:21.131Z,5.8
2023-02-03T05:19:03.336Z,5.8
2023-02-03T05:25:00.625Z,5.7
2023-02-03T05:30:38.350Z,5.6
2023-02-03T05:36:36.434Z,5.6
2023-02-03T05:42:12.229Z,5.6
2023-02-03T05:47:46.896Z,5.5
2023-02-03T05:53:21.715Z,5.6
2023-02-03T05:58:56.753Z,5.6
2023-02-03T06:04:32.689Z,5.5
2023-02-03T06:10:08.562Z,5.5
2023-02-03T06:16:08.053Z,5.4
2023-02-03T06:21:43.087Z,5.4
2023-02-03T06:27:18.178Z,5.4
2023-02-03T06:33:01.039Z,5.5
2023-02-03T06:38:36.962Z,5.6
2023-02-03T06:44:14.869Z,5.6
2023-02-03T06:49:49.712Z,5.6
2023-02-03T06:55:25.006Z,5.6
2023-02-03T07:01:01.099Z,5.5
2023-02-03T07:06:36.432Z,5.5
2023-02-03T07:12:33.689Z,3.8
2023-02-03T07:18:25.649Z,2.7
2023-02-03T07:24:24.393Z,2.7
2023-02-03T07:29:59.101Z,2.6
2023-02-03T07:35:48.148Z,2.3
2023-02-03T07:41:24.084Z,2.2
2023-02-03T07:47:12.587Z,2.6
2023-02-03T07:53:15.527Z,2.8
2023-02-03T07:58:59.570Z,3.1
2023-02-03T08:05:02.847Z,3.3
2023-02-03T08:10:41.269Z,3.3
2023-02-03T08:16:21.554Z,3.7
2023-02-03T08:21:57.210Z,3.8
2023-02-03T08:27:33.792Z,3.9
2023-02-03T08:33:11.917Z,4.1
2023-02-03T08:38:47.356Z,4.1
2023-02-03T08:44:28.351Z,4.3
2023-02-03T08:50:23.124Z,4.6
2023-02-03T08:56:05.434Z,4.8
2023-02-03T09:01:44.651Z,5.2
2023-02-03T09:07:38.776Z,5.5
2023-02-03T09:13:17.164Z,5.6
2023-02-03T09:18:52.237Z,6
2023-02-03T09:24:27.818Z,6.3
2023-02-03T09:30:03.965Z,6.6
2023-02-03T09:35:39.412Z,6.8
2023-02-03T09:41:15.223Z,7
2023-02-03T09:47:13.336Z,7.3
2023-02-03T09:52:47.022Z,7.3
2023-02-03T09:58:23.291Z,7.5
2023-02-03T10:03:59.826Z,7.7
2023-02-03T10:09:36.843Z,7.8
2023-02-03T10:15:24.995Z,8.1
2023-02-03T10:21:00.292Z,8.3
2023-02-03T10:27:25.361Z,8.7
2023-02-03T10:33:14.131Z,8.9
2023-02-03T10:38:48.910Z,9
2023-02-03T10:44:30.599Z,9.1
2023-02-03T10:50:06.354Z,9.4
2023-02-03T10:55:51.134Z,9.5
2023-02-03T11:01:45.167Z,9.7
2023-02-03T11:07:21.691Z,9.8
2023-02-03T11:12:56.832Z,10
2023-02-03T11:18:53.095Z,10
2023-02-03T11:24:28.680Z,10.2
2023-02-03T11:30:18.385Z,10.4
2023-02-03T11:36:00.893Z,10.4
2023-02-03T11:41:51.531Z,10.6
2023-02-03T11:47:58.851Z,10.5
2023-02-03T11:53:42.279Z,10.7
2023-02-03T11:59:36.222Z,11.2
2023-02-03T12:05:16.933Z,11.3
2023-02-03T12:11:02.702Z,11.8
2023-02-03T12:16:39.555Z,11.9
2023-02-03T12:22:16.162Z,11.9
2023-02-03T12:27:59.846Z,12.1
2023-02-03T12:33:36.825Z,12.1
2023-02-03T12:39:12.688Z,12.3
2023-02-03T12:44:47.701Z,12.9
2023-02-03T12:50:23.713Z,13.2
2023-02-03T12:56:04.080Z,13.5
2023-02-03T13:01:41.970Z,13.8
2023-02-03T13:07:43.771Z,14
2023-02-03T13:13:27.544Z,14.4
2023-02-03T13:19:04.362Z,14.7
2023-02-03T13:24:39.861Z,15
2023-02-03T13:30:20.022Z,15.2
2023-02-03T13:35:55.376Z,15.3
2023-02-03T13:41:31.905Z,15.7
2023-02-03T13:47:21.400Z,16
2023-02-03T13:52:57.399Z,16.2
2023-02-03T13:58:41.469Z,16.6
2023-02-03T14:04:16.688Z,17.1
2023-02-03T14:09:53.268Z,17.5
2023-02-03T14:16:11.255Z,17.4
2023-02-03T14:21:47.054Z,18.2
2023-02-03T14:27:21.952Z,18.9
2023-02-03T14:33:09.700Z,20.5
2023-02-03T14:38:59.187Z,21.4
2023-02-03T14:44:35.448Z,22.9
2023-02-03T14:50:20.125Z,23.6
2023-02-03T14:55:56.085Z,22.7
2023-02-03T15:01:38.381Z,22.8
2023-02-03T15:07:16.188Z,22.7
2023-02-03T15:12:51.244Z,21.2
2023-02-03T15:18:26.563Z,21.5
2023-02-03T15:24:02.367Z,21.7
2023-02-03T15:29:42.322Z,19.5
2023-02-03T15:35:17.405Z,15.7
2023-02-03T15:41:10.811Z,14.2
2023-02-03T15:46:46.898Z,13.7
2023-02-03T15:52:23.772Z,13.2
2023-02-03T15:57:59.321Z,12.8
2023-02-03T16:03:42.298Z,12.5
2023-02-03T16:09:17.585Z,12.2
2023-02-03T16:14:56.485Z,12
2023-02-03T16:20:35.746Z,11.6
2023-02-03T16:26:13.994Z,11.5
2023-02-03T16:31:49.225Z,11.3
2023-02-03T16:37:28.559Z,11.2
2023-02-03T16:43:05.593Z,10.9
2023-02-03T16:48:40.527Z,10.7
2023-02-03T16:54:20.810Z,10.5
2023-02-03T17:00:06.861Z,10.2
2023-02-03T17:05:55.441Z,10.1
2023-02-03T17:11:35.243Z,9.8
2023-02-03T17:17:10.136Z,9.7
2023-02-03T17:22:45.584Z,9.5
2023-02-03T17:28:20.373Z,9.4
2023-02-03T17:33:57.235Z,9.2
2023-02-03T17:54:25.069Z,8.7
2023-02-03T18:00:00.161Z,8.5
2023-02-03T18:05:34.987Z,8.5
2023-02-03T18:11:10.722Z,8.4
2023-02-03T18:16:49.595Z,8.3
2023-02-03T18:22:29.844Z,8.2
2023-02-03T18:28:04.781Z,8.1
2023-02-03T18:33:40.869Z,7.9
2023-02-03T18:39:16.588Z,7.6
2023-02-03T18:44:51.263Z,7.3
2023-02-03T18:50:27.258Z,7.3
2023-02-03T18:56:05.907Z,7.4
2023-02-03T19:01:43.419Z,7.2
2023-02-03T19:07:23.721Z,7.1
2023-02-03T19:13:03.584Z,7.1
2023-02-03T19:18:57.682Z,6.8
2023-02-03T19:24:40.384Z,6.9
2023-02-03T19:30:15.532Z,6.7
2023-02-03T19:35:59.563Z,6.8
2023-02-03T19:41:36.881Z,6.8
2023-02-03T19:47:33.790Z,6.6
2023-02-03T19:53:08.276Z,6.2
2023-02-03T19:58:43.423Z,6.2
2023-02-03T20:04:18.654Z,6.2
2023-02-03T20:09:57.211Z,6
2023-02-03T20:15:35.825Z,5.9
2023-02-03T20:21:21.005Z,5.9
2023-02-03T20:27:00.456Z,5.7
2023-02-03T20:32:36.858Z,5.8
2023-02-03T20:38:15.782Z,5.7
2023-02-03T20:44:06.552Z,5.5
2023-02-03T20:50:00.448Z,5.3
2023-02-03T20:56:21.900Z,5
2023-02-03T21:02:11.087Z,5.2
2023-02-03T21:07:47.210Z,5.2
2023-02-03T21:13:27.423Z,5.1
2023-02-03T21:19:03.374Z,5.2
2023-02-03T21:24:38.999Z,5
2023-02-03T21:30:22.775Z,4.9
2023-02-03T21:36:05.406Z,4.8
2023-02-03T21:41:40.697Z,5
2023-02-03T21:47:46.771Z,5.8
2023-02-03T21:53:19.537Z,6.5
2023-02-03T21:58:54.867Z,6.7
2023-02-03T22:05:18.609Z,6.9
2023-02-03T22:10:59.948Z,7
2023-02-03T22:16:40.754Z,7
2023-02-03T22:22:18.138Z,7.1
2023-02-03T22:27:54.170Z,7.1
2023-02-03T22:33:29.953Z,7.1
2023-02-03T22:39:16.912Z,7.2
2023-02-03T22:45:12.740Z,7.2
2023-02-03T22:50:47.753Z,7.3
2023-02-03T22:56:25.950Z,7.3
2023-02-03T23:02:01.686Z,7.3
2023-02-03T23:07:36.810Z,7.4
2023-02-03T23:13:11.727Z,7.3
2023-02-03T23:18:47.021Z,7.4
2023-02-03T23:24:21.829Z,7.4
2023-02-03T23:29:56.697Z,7.5
2023-02-03T23:35:47.248Z,7.4
2023-02-03T23:41:24.631Z,7.4
2023-02-03T23:47:24.171Z,7.3
2023-02-03T23:52:57.869Z,7.2
2023-02-03T23:58:33.573Z,7.2
